Suzuka, Japan
Current Conditions -  °F | °C
As of 1:30 AM on Thursday 27 Nov 2014 (Local Time) from RJGG Reporting Station
Few Clouds Few Clouds  
Wind Chill: 59°   Ceiling: Unl
Heat Index: 59°   Visibility: 6mi
Dew Point: 46°   Wind: 22mph
Humidity: 63%   Direction: 330°NNW
Pressure: 29.97"   Gusts: NA
Location:  34.88°N, 136.58°E
Report Text: RJGG 261630Z 33019KT 9999 FEW030 15/08 Q1015 NOSIG
Loading
Personal Weather Stations






























Interactive Weather Map New forecast layout! Learn more

10-Day Weather Forecast

Advertisements
Track Severe Weather on mobile